createdAt,value
2019-02-28T00:00:02.994Z,10.19
2019-02-28T00:01:02.910Z,10.98
2019-02-28T00:02:03.225Z,10.72
2019-02-28T00:03:02.987Z,11.58
2019-02-28T00:04:02.674Z,10.59
2019-02-28T00:05:06.796Z,10.62
2019-02-28T00:06:03.538Z,10.89
2019-02-28T00:07:03.493Z,10.52
2019-02-28T00:08:03.268Z,12.13
2019-02-28T00:09:03.051Z,11.79
2019-02-28T00:10:03.295Z,10.76
2019-02-28T00:11:05.983Z,11.61
2019-02-28T00:12:03.509Z,11.79
2019-02-28T00:13:03.415Z,10.49
2019-02-28T00:14:03.415Z,9.77
2019-02-28T00:15:03.380Z,11.57
2019-02-28T00:16:04.075Z,11.52
2019-02-28T00:17:09.210Z,10.61
2019-02-28T00:18:03.859Z,10.32
2019-02-28T00:19:03.361Z,12.49
2019-02-28T00:20:03.271Z,11.38
2019-02-28T00:21:07.128Z,10.95
2019-02-28T00:22:02.967Z,10.65
2019-02-28T00:23:02.978Z,11.55
2019-02-28T00:24:03.159Z,10.28
2019-02-28T00:25:05.096Z,10.28
2019-02-28T00:26:03.075Z,11.39
2019-02-28T00:27:02.804Z,9.9
2019-02-28T00:28:03.234Z,9.9
2019-02-28T00:29:03.084Z,10.94
2019-02-28T00:30:06.891Z,10.78
2019-02-28T00:31:02.877Z,10.6
2019-02-28T00:32:03.114Z,10.59
2019-02-28T00:33:03.581Z,10.91
2019-02-28T00:34:05.637Z,10.24
2019-02-28T00:35:03.170Z,10.14
2019-02-28T00:36:03.302Z,9.56
2019-02-28T00:37:03.106Z,10.47
2019-02-28T00:38:02.937Z,11.02
2019-02-28T00:39:04.228Z,10.58
2019-02-28T00:40:02.893Z,10.99
2019-02-28T00:41:03.263Z,9.62
2019-02-28T00:42:02.941Z,9.66
2019-02-28T00:43:03.080Z,10.14
2019-02-28T00:44:04.566Z,9.65
2019-02-28T00:45:03.855Z,10.47
2019-02-28T00:46:03.065Z,10.66
2019-02-28T00:47:02.882Z,9.92
2019-02-28T00:48:03.043Z,9.89
2019-02-28T00:49:02.924Z,9.87
2019-02-28T00:50:03.054Z,11.03
2019-02-28T00:51:03.714Z,11.03
2019-02-28T00:52:03.014Z,10.38
2019-02-28T00:53:02.812Z,10.93
2019-02-28T00:54:02.929Z,10.11
2019-02-28T00:55:02.967Z,9.92
2019-02-28T00:56:03.705Z,9.96
2019-02-28T00:57:02.798Z,9.64
2019-02-28T00:58:03.695Z,9.99
2019-02-28T00:59:03.726Z,11.32
2019-02-28T01:00:06.396Z,9.6
2019-02-28T01:01:03.620Z,9.32
2019-02-28T01:02:03.688Z,10.26
2019-02-28T01:03:03.364Z,10.21
2019-02-28T01:04:03.472Z,9.17
2019-02-28T01:05:06.055Z,8.81
2019-02-28T01:06:03.546Z,9.41
2019-02-28T01:07:03.520Z,9.46
2019-02-28T01:08:03.508Z,9.5
2019-02-28T01:09:03.453Z,9.25
2019-02-28T01:10:05.226Z,9.12
2019-02-28T01:11:01.929Z,8.37
2019-02-28T01:12:03.722Z,8.74
2019-02-28T01:13:03.784Z,8.74
2019-02-28T01:14:03.110Z,9.34
2019-02-28T01:15:03.037Z,9.78
2019-02-28T01:16:03.675Z,9.78
2019-02-28T01:17:03.391Z,9.11
2019-02-28T01:18:03.482Z,8.49
2019-02-28T01:19:02.948Z,9.55
2019-02-28T01:20:03.153Z,9.49
2019-02-28T01:21:03.122Z,8.92
2019-02-28T01:22:03.166Z,9.12
2019-02-28T01:23:03.036Z,8.67
2019-02-28T01:24:03.173Z,9.56
2019-02-28T01:25:07.108Z,8.85
2019-02-28T01:26:03.305Z,9.62
2019-02-28T01:27:03.169Z,8.46
2019-02-28T01:28:03.045Z,8.51
2019-02-28T01:29:03.162Z,9.14
2019-02-28T01:30:03.279Z,9.26
2019-02-28T01:31:03.200Z,7.78
2019-02-28T01:32:02.821Z,8.93
2019-02-28T01:33:03.068Z,8.29
2019-02-28T01:34:03.119Z,8.22
2019-02-28T01:35:06.830Z,7.69
2019-02-28T01:36:02.871Z,8.18
2019-02-28T01:37:02.825Z,7.53
2019-02-28T01:38:02.536Z,7.54
2019-02-28T01:39:03.705Z,7.62
2019-02-28T01:40:05.338Z,7.93
2019-02-28T01:41:03.833Z,8.54
2019-02-28T01:42:03.732Z,8.66
2019-02-28T01:43:03.788Z,8.18
2019-02-28T01:44:03.484Z,7.19
2019-02-28T01:45:03.202Z,7.88
2019-02-28T01:46:03.506Z,7.82
2019-02-28T01:47:02.735Z,7.16
2019-02-28T01:48:03.626Z,6.56
2019-02-28T01:49:03.516Z,7.46
2019-02-28T01:50:03.354Z,6.91
2019-02-28T01:51:03.783Z,7.32
2019-02-28T01:52:03.668Z,6.61
2019-02-28T01:53:03.572Z,7.12
2019-02-28T01:54:03.570Z,7.08
2019-02-28T01:55:03.614Z,6.93
2019-02-28T01:56:03.351Z,6.19
2019-02-28T01:57:03.378Z,7.01
2019-02-28T01:58:04.120Z,7.01
2019-02-28T01:59:03.277Z,7.29
2019-02-28T02:00:03.381Z,6.59
2019-02-28T02:01:02.803Z,6.59
2019-02-28T02:02:07.010Z,6.17
2019-02-28T02:03:03.645Z,6.29
2019-02-28T02:04:03.700Z,5.34
2019-02-28T02:05:02.785Z,5.34
2019-02-28T02:06:02.566Z,7.43
2019-02-28T02:07:03.571Z,6.06
2019-02-28T02:08:07.346Z,6.06
2019-02-28T02:09:02.803Z,6.28
2019-02-28T02:10:03.767Z,5.78
2019-02-28T02:11:03.780Z,5.88
2019-02-28T02:12:03.658Z,5.71
2019-02-28T02:13:04.391Z,6.36
2019-02-28T02:14:03.541Z,6.41
2019-02-28T02:15:03.383Z,6.46
2019-02-28T02:16:03.597Z,6.56
2019-02-28T02:17:03.276Z,6.13
2019-02-28T02:18:09.303Z,6.68
2019-02-28T02:19:03.421Z,6.85
2019-02-28T02:20:03.446Z,6.12
2019-02-28T02:21:03.388Z,5.94
2019-02-28T02:22:03.426Z,6.41
2019-02-28T02:23:03.349Z,5.86
2019-02-28T02:24:03.284Z,5.88
2019-02-28T02:25:04.331Z,5.7
2019-02-28T02:26:03.350Z,6.39
2019-02-28T02:27:03.088Z,6.71
2019-02-28T02:28:03.231Z,5.55
2019-02-28T02:29:03.192Z,6.16
2019-02-28T02:30:02.903Z,6.99
2019-02-28T02:31:02.944Z,6.46
2019-02-28T02:32:02.813Z,7.16
2019-02-28T02:33:03.042Z,6.37
2019-02-28T02:34:03.110Z,6.13
2019-02-28T02:35:08.454Z,5.92
2019-02-28T02:36:03.026Z,6.39
2019-02-28T02:37:02.902Z,6.4
2019-02-28T02:38:04.889Z,6.08
2019-02-28T02:39:03.700Z,6.51
2019-02-28T02:40:03.584Z,6.31
2019-02-28T02:41:05.046Z,6.48
2019-02-28T02:42:11.470Z,6.97
2019-02-28T02:43:02.946Z,6.47
2019-02-28T02:44:03.113Z,6.09
2019-02-28T02:45:06.429Z,6.52
2019-02-28T02:46:03.652Z,5.95
2019-02-28T02:47:03.380Z,6.86
2019-02-28T02:48:06.686Z,6.85
2019-02-28T02:49:03.066Z,6.08
2019-02-28T02:50:03.432Z,7.02
2019-02-28T02:51:03.157Z,5.62
2019-02-28T02:52:03.375Z,6.26
2019-02-28T02:53:06.574Z,6.26
2019-02-28T02:54:03.267Z,5.89
2019-02-28T02:55:03.076Z,6.64
2019-02-28T02:56:05.067Z,6.64
2019-02-28T02:57:03.243Z,5.92
2019-02-28T02:58:03.153Z,6.61
2019-02-28T02:59:03.455Z,6.34
2019-02-28T03:00:03.287Z,6.08
2019-02-28T03:01:02.972Z,5.97
2019-02-28T03:02:02.785Z,6.24
2019-02-28T03:03:07.603Z,6.29
2019-02-28T03:04:03.338Z,5.7
2019-02-28T03:05:03.589Z,5.52
2019-02-28T03:06:03.334Z,5.98
2019-02-28T03:07:02.966Z,5.62
2019-02-28T03:08:03.049Z,5.96
2019-02-28T03:09:03.030Z,5.28
2019-02-28T03:10:03.148Z,5.52
2019-02-28T03:11:03.271Z,5.98
2019-02-28T03:12:02.862Z,5.68
2019-02-28T03:13:06.239Z,5.94
2019-02-28T03:14:02.829Z,5.47
2019-02-28T03:15:03.704Z,5.62
2019-02-28T03:16:03.066Z,5.62
2019-02-28T03:17:11.860Z,5.22
2019-02-28T03:18:03.097Z,5.24
2019-02-28T03:19:02.964Z,5.36
2019-02-28T03:20:08.783Z,5.54
2019-02-28T03:21:03.061Z,5.73
2019-02-28T03:22:02.861Z,5.39
2019-02-28T03:23:03.551Z,4.47
2019-02-28T03:24:02.708Z,5.34
2019-02-28T03:25:03.119Z,5.66
2019-02-28T03:26:07.270Z,6.02
2019-02-28T03:27:03.096Z,5.64
2019-02-28T03:28:02.934Z,5.35
2019-02-28T03:29:08.875Z,6.24
2019-02-28T03:30:03.835Z,5.41
2019-02-28T03:31:14.605Z,5.76
2019-02-28T03:32:03.604Z,5.94
2019-02-28T03:33:03.569Z,5.34
2019-02-28T03:34:13.879Z,5.26
2019-02-28T03:35:03.054Z,5.76
2019-02-28T03:36:02.976Z,5.63
2019-02-28T03:37:03.089Z,5.63
2019-02-28T03:38:12.412Z,5.11
2019-02-28T03:39:03.087Z,5.11
2019-02-28T03:40:05.393Z,5.27
2019-02-28T03:41:03.955Z,5.67
2019-02-28T03:42:02.994Z,5.67
2019-02-28T03:43:07.104Z,4.63
2019-02-28T03:44:02.893Z,5.48
2019-02-28T03:45:02.988Z,4.63
2019-02-28T03:46:11.189Z,4.7
2019-02-28T03:47:03.632Z,5.43
2019-02-28T03:48:03.616Z,5.09
2019-02-28T03:49:12.426Z,5.15
2019-02-28T03:50:03.830Z,4.68
2019-02-28T03:51:03.571Z,4.34
2019-02-28T03:52:06.955Z,4.66
2019-02-28T03:53:03.490Z,5.02
2019-02-28T03:54:02.787Z,5.76
2019-02-28T03:55:04.786Z,5.11
2019-02-28T03:56:03.805Z,5.08
2019-02-28T03:57:03.705Z,5.04
2019-02-28T03:58:05.878Z,4.33
2019-02-28T03:59:03.088Z,4.29
2019-02-28T04:00:03.465Z,5.03
2019-02-28T04:01:10.116Z,4.56
2019-02-28T04:02:03.487Z,4.33
2019-02-28T04:03:03.555Z,4.46
2019-02-28T04:04:12.315Z,4.39
2019-02-28T04:05:03.727Z,3.94
2019-02-28T04:06:04.913Z,4.35
2019-02-28T04:07:02.787Z,4.52
2019-02-28T04:08:03.904Z,4.39
2019-02-28T04:09:09.087Z,4.25
2019-02-28T04:10:03.676Z,4.41
2019-02-28T04:11:03.612Z,4.65
2019-02-28T04:12:09.108Z,4.73
2019-02-28T04:13:03.600Z,4.44
2019-02-28T04:14:03.919Z,4.49
2019-02-28T04:15:10.017Z,4.4
2019-02-28T04:16:10.000Z,4.25
2019-02-28T04:17:03.338Z,4.83
2019-02-28T04:18:08.621Z,4.32
2019-02-28T04:19:03.626Z,4.4
2019-02-28T04:20:03.676Z,4.02
2019-02-28T04:21:03.397Z,3.99
2019-02-28T04:22:02.966Z,4.44
2019-02-28T04:23:03.414Z,4.68
2019-02-28T04:24:03.586Z,4.52
2019-02-28T04:25:03.731Z,4.65
2019-02-28T04:26:03.225Z,4.65
2019-02-28T04:27:07.898Z,4.65
2019-02-28T04:28:03.286Z,4.34
2019-02-28T04:29:03.581Z,4.34
2019-02-28T04:30:08.459Z,4.55
2019-02-28T04:31:03.217Z,4.12
2019-02-28T04:32:03.109Z,4.12
2019-02-28T04:33:03.407Z,5.13
2019-02-28T04:34:03.369Z,3.96
2019-02-28T04:35:03.669Z,4.52
2019-02-28T04:36:03.308Z,4.52
2019-02-28T04:37:03.403Z,3.54
2019-02-28T04:38:03.299Z,4.86
2019-02-28T04:39:03.346Z,4.67
2019-02-28T04:40:03.295Z,4.58
2019-02-28T04:41:03.115Z,4.61
2019-02-28T04:42:06.038Z,4.75
2019-02-28T04:43:03.243Z,4.88
2019-02-28T04:44:03.431Z,4.31
2019-02-28T04:45:03.283Z,4.79
2019-02-28T04:46:03.488Z,4.19
2019-02-28T04:47:06.750Z,4.28
2019-02-28T04:48:03.114Z,4.17
2019-02-28T04:49:03.235Z,5.22
2019-02-28T04:50:03.259Z,4
2019-02-28T04:51:06.592Z,4.38
2019-02-28T04:52:03.258Z,4.81
2019-02-28T04:53:03.030Z,5.06
2019-02-28T04:54:02.922Z,5.02
2019-02-28T04:55:04.021Z,4.31
2019-02-28T04:56:03.167Z,4.85
2019-02-28T04:57:03.343Z,4.68
2019-02-28T04:58:02.513Z,4.24
2019-02-28T04:59:02.821Z,3.62
2019-02-28T05:00:06.615Z,4.55
2019-02-28T05:01:03.037Z,3.93
2019-02-28T05:02:02.865Z,4.66
2019-02-28T05:03:02.806Z,3.81
2019-02-28T05:04:03.186Z,4.51
2019-02-28T05:05:02.998Z,4.04
2019-02-28T05:06:02.724Z,4.06
2019-02-28T05:07:02.797Z,4.42
2019-02-28T05:08:06.007Z,3.83
2019-02-28T05:09:02.805Z,4.11
2019-02-28T05:10:02.933Z,3.91
2019-02-28T05:11:02.673Z,3.96
2019-02-28T05:12:06.038Z,4.23
2019-02-28T05:13:03.016Z,4.24
2019-02-28T05:14:02.991Z,4.24
2019-02-28T05:15:02.897Z,3.69
2019-02-28T05:16:02.972Z,3.94
2019-02-28T05:17:02.874Z,3.94
2019-02-28T05:18:03.342Z,3.86
2019-02-28T05:19:03.629Z,3.79
2019-02-28T05:20:03.686Z,3.79
2019-02-28T05:21:03.003Z,4.69
2019-02-28T05:22:02.391Z,4.3
2019-02-28T05:23:03.825Z,4.34
2019-02-28T05:24:03.822Z,3.66
2019-02-28T05:25:03.787Z,3.7
2019-02-28T05:26:03.207Z,3.71
2019-02-28T05:27:02.873Z,3.78
2019-02-28T05:28:07.563Z,4.13
2019-02-28T05:29:02.934Z,4.16
2019-02-28T05:30:02.789Z,4.26
2019-02-28T05:31:02.852Z,3.65
2019-02-28T05:32:02.849Z,3.87
2019-02-28T05:33:02.803Z,3.96
2019-02-28T05:34:03.075Z,4.23
2019-02-28T05:35:02.697Z,4.22
2019-02-28T05:36:04.490Z,3.58
2019-02-28T05:37:03.644Z,3.19
2019-02-28T05:38:03.666Z,4.22
2019-02-28T05:39:03.749Z,4.48
2019-02-28T05:40:06.924Z,4.34
2019-02-28T05:41:03.610Z,4.74
2019-02-28T05:42:02.960Z,4.24
2019-02-28T05:43:02.911Z,4.28
2019-02-28T05:44:06.092Z,3.82
2019-02-28T05:45:03.062Z,5.03
2019-02-28T05:46:03.594Z,4.29
2019-02-28T05:47:03.507Z,4.42
2019-02-28T05:48:04.725Z,4.13
2019-02-28T05:49:03.806Z,4.66
2019-02-28T05:50:03.701Z,4.84
2019-02-28T05:51:02.838Z,4.24
2019-02-28T05:52:02.937Z,4.46
2019-02-28T05:53:09.241Z,4.46
2019-02-28T05:54:02.601Z,5.01
2019-02-28T05:55:03.426Z,3.84
2019-02-28T05:56:03.281Z,4.42
2019-02-28T05:57:08.787Z,4.41
2019-02-28T05:58:02.830Z,5.74
2019-02-28T05:59:02.624Z,4.58
2019-02-28T06:00:03.146Z,4.3
2019-02-28T06:01:02.978Z,4.35
2019-02-28T06:02:02.787Z,5.06
2019-02-28T06:03:03.284Z,4.51
2019-02-28T06:04:04.075Z,4.78
2019-02-28T06:05:03.323Z,4.78
2019-02-28T06:06:02.947Z,5.94
2019-02-28T06:07:03.129Z,5.94
2019-02-28T06:08:04.264Z,4.71
2019-02-28T06:09:03.096Z,4.76
2019-02-28T06:10:03.777Z,4.76
2019-02-28T06:11:02.818Z,5.05
2019-02-28T06:12:02.846Z,4.76
2019-02-28T06:13:02.962Z,5.11
2019-02-28T06:14:02.653Z,4.65
2019-02-28T06:15:03.838Z,6.29
2019-02-28T06:16:02.872Z,6.05
2019-02-28T06:17:02.971Z,5.51
2019-02-28T06:18:03.818Z,4.54
2019-02-28T06:19:08.937Z,4.68
2019-02-28T06:20:03.829Z,5.02
2019-02-28T06:21:03.644Z,4.91
2019-02-28T06:22:02.785Z,5.02
2019-02-28T06:23:03.047Z,4.72
2019-02-28T06:24:02.921Z,4.48
2019-02-28T06:25:03.264Z,5.22
2019-02-28T06:26:03.058Z,4.89
2019-02-28T06:27:07.358Z,5.3
2019-02-28T06:28:02.808Z,5.62
2019-02-28T06:29:05.844Z,4.72
2019-02-28T06:30:02.652Z,5.09
2019-02-28T06:31:03.740Z,4.85
2019-02-28T06:32:03.665Z,4.94
2019-02-28T06:33:03.643Z,4.1
2019-02-28T06:34:08.522Z,4.81
2019-02-28T06:35:02.781Z,4.57
2019-02-28T06:36:04.714Z,4.61
2019-02-28T06:37:04.503Z,4.57
2019-02-28T06:38:03.042Z,5.31
2019-02-28T06:39:03.657Z,4.65
2019-02-28T06:40:03.523Z,5.02
2019-02-28T06:41:07.729Z,4.09
2019-02-28T06:42:03.557Z,4.91
2019-02-28T06:43:02.979Z,4.7
2019-02-28T06:44:03.285Z,5.01
2019-02-28T06:45:03.891Z,4.25
2019-02-28T06:46:03.845Z,5.47
2019-02-28T06:47:03.761Z,4.2
2019-02-28T06:48:03.748Z,4.44
2019-02-28T06:49:07.255Z,4.34
2019-02-28T06:50:03.788Z,4.41
2019-02-28T06:51:03.641Z,4.29
2019-02-28T06:52:02.831Z,5.19
2019-02-28T06:53:03.140Z,4.56
2019-02-28T06:54:08.532Z,4.81
2019-02-28T06:55:02.909Z,4.22
2019-02-28T06:56:02.910Z,5.2
2019-02-28T06:57:02.530Z,3.58
2019-02-28T06:58:02.986Z,3.58
2019-02-28T06:59:05.594Z,4.12
2019-02-28T07:00:02.899Z,4.3
2019-02-28T07:01:03.376Z,4.3
2019-02-28T07:02:03.674Z,4.58
2019-02-28T07:03:04.504Z,4
2019-02-28T07:04:02.773Z,4
2019-02-28T07:05:03.267Z,4.28
2019-02-28T07:06:02.983Z,4.88
2019-02-28T07:07:03.070Z,4.72
2019-02-28T07:08:02.730Z,4.53
2019-02-28T07:09:03.176Z,4.74
2019-02-28T07:10:02.755Z,4.39
2019-02-28T07:11:02.676Z,4.7
2019-02-28T07:12:03.745Z,4.21
2019-02-28T07:13:05.594Z,4.35
2019-02-28T07:14:02.769Z,4.87
2019-02-28T07:15:03.037Z,4.98
2019-02-28T07:16:04.486Z,3.94
2019-02-28T07:17:03.035Z,4.62
2019-02-28T07:18:03.685Z,4.74
2019-02-28T07:19:02.897Z,5.04
2019-02-28T07:20:03.570Z,4.25
2019-02-28T07:21:03.503Z,5.42
2019-02-28T07:22:03.433Z,4.92
2019-02-28T07:23:02.427Z,4.32
2019-02-28T07:24:03.871Z,4.19
2019-02-28T07:25:03.484Z,5.09
2019-02-28T07:26:03.547Z,4.55
2019-02-28T07:27:04.355Z,5.24
2019-02-28T07:28:03.577Z,4.92
2019-02-28T07:29:03.571Z,4.87
2019-02-28T07:30:03.561Z,4.78
2019-02-28T07:31:02.921Z,4.97
2019-02-28T07:32:03.401Z,4.78
2019-02-28T07:33:10.633Z,5.39
2019-02-28T07:34:03.292Z,5.89
2019-02-28T07:35:03.506Z,5.52
2019-02-28T07:36:10.284Z,4.88
2019-02-28T07:37:03.326Z,5.5
2019-02-28T07:38:03.169Z,5.52
2019-02-28T07:39:05.276Z,5.19
2019-02-28T07:40:03.072Z,5.81
2019-02-28T07:41:03.467Z,5.95
2019-02-28T07:42:03.143Z,5.95
2019-02-28T07:43:03.313Z,6.44
2019-02-28T07:44:03.181Z,6.17
2019-02-28T07:45:03.285Z,5.67
2019-02-28T07:46:07.866Z,5.89
2019-02-28T07:47:03.465Z,5.89
2019-02-28T07:48:03.394Z,5.49
2019-02-28T07:49:03.305Z,5.49
2019-02-28T07:50:03.149Z,6.12
2019-02-28T07:51:02.920Z,6.32
2019-02-28T07:52:03.252Z,6.32
2019-02-28T07:53:08.719Z,6.41
2019-02-28T07:54:03.088Z,6.68
2019-02-28T07:55:02.951Z,6.68
2019-02-28T07:56:06.821Z,6.15
2019-02-28T07:57:02.993Z,6.34
2019-02-28T07:58:03.169Z,6.56
2019-02-28T07:59:06.307Z,6.58
2019-02-28T08:00:03.430Z,6.82
2019-02-28T08:01:03.276Z,6.61
2019-02-28T08:02:04.023Z,5.32
2019-02-28T08:03:03.080Z,5.91
2019-02-28T08:04:02.538Z,6.59
2019-02-28T08:05:03.364Z,6.96
2019-02-28T08:06:05.765Z,6.28
2019-02-28T08:07:03.359Z,6.31
2019-02-28T08:08:03.049Z,6.75
2019-02-28T08:09:05.515Z,6.58
2019-02-28T08:10:03.424Z,6.54
2019-02-28T08:11:03.513Z,6.71
2019-02-28T08:12:03.458Z,6.41
2019-02-28T08:13:04.178Z,6.74
2019-02-28T08:14:03.668Z,6.42
2019-02-28T08:15:03.416Z,6.49
2019-02-28T08:16:03.564Z,7.05
2019-02-28T08:17:08.768Z,6.86
2019-02-28T08:18:05.965Z,6.9
2019-02-28T08:19:03.258Z,7.15
2019-02-28T08:20:03.059Z,6.48
2019-02-28T08:21:08.679Z,7.22
2019-02-28T08:22:03.547Z,6.34
2019-02-28T08:23:03.647Z,6.88
2019-02-28T08:24:06.394Z,7.6
2019-02-28T08:25:03.803Z,7.1
2019-02-28T08:26:02.682Z,6.89
2019-02-28T08:27:02.763Z,6.9
2019-02-28T08:28:02.996Z,8.08
2019-02-28T08:29:02.788Z,7.66
2019-02-28T08:30:03.151Z,7.06
2019-02-28T08:31:03.245Z,7.6
2019-02-28T08:32:08.174Z,7.91
2019-02-28T08:33:03.276Z,7.34
2019-02-28T08:34:03.111Z,8.84
2019-02-28T08:35:03.107Z,8.84
2019-02-28T08:36:02.999Z,8.62
2019-02-28T08:37:02.905Z,8.36
2019-02-28T08:38:03.187Z,8.36
2019-02-28T08:39:03.148Z,8.59
2019-02-28T08:40:03.293Z,8.22
2019-02-28T08:41:03.477Z,8.38
2019-02-28T08:42:04.987Z,8.93
2019-02-28T08:43:03.487Z,9.02
2019-02-28T08:44:03.354Z,8.26
2019-02-28T08:45:03.766Z,8.38
2019-02-28T08:46:11.248Z,8.94
2019-02-28T08:47:03.508Z,8.73
2019-02-28T08:48:03.313Z,8.83
2019-02-28T08:49:07.366Z,9.38
2019-02-28T08:50:03.597Z,9.02
2019-02-28T08:51:02.729Z,9.35
2019-02-28T08:52:06.695Z,9.24
2019-02-28T08:53:02.718Z,10.14
2019-02-28T08:54:02.782Z,9.06
2019-02-28T08:55:09.111Z,9.37
2019-02-28T08:56:02.806Z,9.19
2019-02-28T08:57:02.883Z,9.28
2019-02-28T08:58:06.662Z,9.29
2019-02-28T08:59:12.167Z,9.51
2019-02-28T09:00:03.259Z,10.12
2019-02-28T09:01:06.567Z,9.16
2019-02-28T09:02:02.942Z,9.62
2019-02-28T09:03:03.435Z,9.08
2019-02-28T09:04:05.877Z,10.08
2019-02-28T09:05:03.391Z,10.41
2019-02-28T09:06:07.313Z,10.91
2019-02-28T09:07:03.773Z,10.42
2019-02-28T09:08:03.653Z,9.57
2019-02-28T09:09:03.656Z,10.31
2019-02-28T09:10:03.368Z,10.45
2019-02-28T09:11:03.595Z,10.97
2019-02-28T09:12:03.584Z,10.12
2019-02-28T09:13:08.799Z,10.29
2019-02-28T09:14:03.532Z,10.23
2019-02-28T09:15:03.016Z,10.02
2019-02-28T09:16:05.584Z,11.09
2019-02-28T09:17:02.591Z,11.06
2019-02-28T09:18:03.628Z,10.29
2019-02-28T09:19:03.722Z,10.91
2019-02-28T09:20:03.562Z,10.59
2019-02-28T09:21:02.704Z,10.62
2019-02-28T09:22:03.682Z,11.18
2019-02-28T09:23:03.361Z,10.85
2019-02-28T09:24:02.921Z,10.88
2019-02-28T09:25:03.101Z,10.88
2019-02-28T09:26:03.608Z,10.88
2019-02-28T09:27:04.960Z,10.68
2019-02-28T09:28:03.020Z,10.96
2019-02-28T09:29:03.365Z,10.96
2019-02-28T09:30:03.360Z,10.51
2019-02-28T09:31:06.040Z,11.62
2019-02-28T09:32:03.017Z,11.62
2019-02-28T09:33:03.094Z,11.01
2019-02-28T09:34:03.369Z,11.5
2019-02-28T09:35:11.895Z,11.22
2019-02-28T09:36:03.559Z,12.08
2019-02-28T09:37:03.743Z,10.38
2019-02-28T09:38:08.897Z,11.02
2019-02-28T09:39:03.551Z,10.58
2019-02-28T09:40:03.741Z,10.66
2019-02-28T09:41:05.385Z,11.05
2019-02-28T09:42:03.446Z,9.91
2019-02-28T09:43:03.557Z,11.74
2019-02-28T09:44:03.505Z,10.68
2019-02-28T09:45:07.696Z,10.32
2019-02-28T09:46:03.318Z,12.04
2019-02-28T09:47:03.384Z,11.38
2019-02-28T09:48:02.834Z,9.84
2019-02-28T09:49:04.958Z,10.26
2019-02-28T09:50:02.848Z,10.18
2019-02-28T09:51:03.133Z,11.11
2019-02-28T09:52:07.262Z,10.92
2019-02-28T09:53:02.407Z,10.85
2019-02-28T09:54:03.511Z,11.08
2019-02-28T09:55:03.314Z,11.12
2019-02-28T09:56:03.008Z,10.25
2019-02-28T09:57:03.177Z,10.83
2019-02-28T09:58:03.313Z,11.09
2019-02-28T09:59:04.024Z,10.67
2019-02-28T10:00:03.174Z,11.31
2019-02-28T10:01:03.362Z,10.89
2019-02-28T10:02:09.384Z,10.39
2019-02-28T10:03:03.676Z,10.18
2019-02-28T10:04:03.772Z,10.99
2019-02-28T10:05:07.578Z,11.02
2019-02-28T10:06:03.471Z,11.16
2019-02-28T10:07:03.135Z,10.55
2019-02-28T10:08:03.608Z,10.54
2019-02-28T10:09:03.424Z,10.28
2019-02-28T10:10:03.304Z,10.01
2019-02-28T10:11:03.504Z,10.96
2019-02-28T10:12:07.943Z,10.29
2019-02-28T10:13:03.446Z,10.35
2019-02-28T10:14:03.158Z,11.94
2019-02-28T10:15:07.515Z,11.94
2019-02-28T10:16:03.544Z,11.6
2019-02-28T10:17:03.434Z,11.6
2019-02-28T10:18:05.304Z,10.93
2019-02-28T10:19:05.337Z,12.16
2019-02-28T10:20:03.260Z,12.16
2019-02-28T10:21:03.431Z,12.18
2019-02-28T10:22:03.442Z,11.68
2019-02-28T10:23:03.413Z,11.68
2019-02-28T10:24:03.311Z,12.44
2019-02-28T10:25:07.156Z,11.99
2019-02-28T10:26:03.361Z,12.21
2019-02-28T10:27:03.683Z,10.78
2019-02-28T10:28:03.660Z,12.1
2019-02-28T10:29:08.052Z,12.21
2019-02-28T10:30:03.597Z,11.94
2019-02-28T10:31:03.645Z,12.56
2019-02-28T10:32:09.021Z,11.14
2019-02-28T10:33:03.111Z,11.66
2019-02-28T10:34:03.840Z,10.99
2019-02-28T10:35:03.530Z,11.82
2019-02-28T10:36:03.557Z,12.76
2019-02-28T10:37:04.443Z,12.1
2019-02-28T10:38:03.736Z,12.13
2019-02-28T10:39:08.814Z,11.68
2019-02-28T10:40:05.209Z,12.73
2019-02-28T10:41:03.662Z,12.31
2019-02-28T10:42:06.077Z,12.14
2019-02-28T10:43:03.607Z,12.95
2019-02-28T10:44:03.696Z,12.01
2019-02-28T10:45:06.449Z,12.88
2019-02-28T10:46:03.843Z,12.01
2019-02-28T10:47:02.628Z,13.99
2019-02-28T10:48:04.157Z,12.32
2019-02-28T10:49:02.962Z,13.44
2019-02-28T10:50:02.938Z,13.79
2019-02-28T10:51:14.129Z,14.05
2019-02-28T10:52:02.853Z,13.33
2019-02-28T10:53:06.129Z,13.96
2019-02-28T10:54:03.053Z,14.33
2019-02-28T10:55:03.340Z,14.39
2019-02-28T10:56:02.851Z,14.81
2019-02-28T10:57:07.086Z,14.92
2019-02-28T10:58:02.855Z,14.48
2019-02-28T10:59:02.734Z,12.71
2019-02-28T11:00:02.755Z,12.9
2019-02-28T11:01:08.740Z,14.03
2019-02-28T11:02:02.754Z,13.16
2019-02-28T11:03:03.894Z,14.32
2019-02-28T11:04:07.492Z,13.84
2019-02-28T11:05:02.791Z,13.18
2019-02-28T11:06:03.213Z,13.18
2019-02-28T11:07:03.238Z,14.68
2019-02-28T11:08:02.998Z,14.68
2019-02-28T11:09:03.084Z,14.99
2019-02-28T11:10:03.129Z,14.78
2019-02-28T11:11:03.073Z,14.31
2019-02-28T11:12:02.991Z,14.07
2019-02-28T11:13:02.931Z,14.2
2019-02-28T11:14:04.971Z,14.36
2019-02-28T11:15:03.448Z,15.52
2019-02-28T11:16:03.014Z,15.49
2019-02-28T11:17:02.844Z,15.62
2019-02-28T11:18:09.792Z,14.8
2019-02-28T11:19:03.218Z,15.33
2019-02-28T11:20:03.322Z,15.24
2019-02-28T11:21:03.032Z,14.31
2019-02-28T11:22:06.011Z,16.02
2019-02-28T11:23:03.195Z,14.62
2019-02-28T11:24:03.064Z,16.91
2019-02-28T11:25:03.220Z,15.08
2019-02-28T11:26:02.905Z,15.98
2019-02-28T11:27:02.704Z,15.55
2019-02-28T11:28:02.810Z,15.81
2019-02-28T11:29:03.949Z,15.75
2019-02-28T11:30:03.285Z,14.71
2019-02-28T11:31:03.044Z,15.92
2019-02-28T11:32:03.524Z,16.85
2019-02-28T11:33:04.814Z,16.79
2019-02-28T11:34:03.897Z,16.48
2019-02-28T11:35:03.774Z,16.9
2019-02-28T11:36:03.353Z,16.22
2019-02-28T11:37:09.649Z,16.73
2019-02-28T11:38:05.165Z,15.92
2019-02-28T11:39:03.696Z,15.78
2019-02-28T11:40:08.410Z,15.42
2019-02-28T11:41:03.418Z,16.24
2019-02-28T11:42:03.361Z,15.34
2019-02-28T11:43:04.212Z,16.03
2019-02-28T11:44:03.498Z,16.22
2019-02-28T11:45:03.122Z,17.46
2019-02-28T11:46:03.209Z,16.42
2019-02-28T11:47:03.223Z,16.75
2019-02-28T11:48:03.240Z,17.65
2019-02-28T11:49:03.227Z,15.88
2019-02-28T11:50:07.555Z,15.36
2019-02-28T11:51:03.580Z,16.76
2019-02-28T11:52:02.872Z,16.19
2019-02-28T11:53:06.096Z,15.25
2019-02-28T11:54:03.563Z,15.25
2019-02-28T11:55:03.304Z,15.45
2019-02-28T11:56:02.968Z,14.46
2019-02-28T11:57:06.868Z,14.46
2019-02-28T11:58:03.549Z,14.98
2019-02-28T11:59:02.011Z,14.35
2019-02-28T12:00:03.363Z,14.35
2019-02-28T12:01:03.386Z,15.25
2019-02-28T12:02:03.659Z,15.35
2019-02-28T12:03:05.928Z,13.78
2019-02-28T12:04:02.960Z,14.36
2019-02-28T12:05:03.221Z,15.12
2019-02-28T12:06:03.102Z,12.66
2019-02-28T12:07:03.075Z,12.54
2019-02-28T12:08:02.971Z,12.54
2019-02-28T12:09:02.958Z,12.74
2019-02-28T12:10:03.413Z,12.11
2019-02-28T12:11:03.028Z,12.4
2019-02-28T12:12:03.012Z,12.3
2019-02-28T12:13:02.894Z,11.85
2019-02-28T12:14:03.035Z,10.46
2019-02-28T12:15:06.784Z,11.04
2019-02-28T12:16:03.752Z,10.38
2019-02-28T12:17:03.001Z,9.56
2019-02-28T12:18:04.938Z,10.67
2019-02-28T12:19:02.962Z,10.41
2019-02-28T12:20:04.029Z,11.54
2019-02-28T12:21:05.084Z,11.36
2019-02-28T12:22:02.993Z,10.21
2019-02-28T12:23:02.854Z,10.47
2019-02-28T12:24:02.711Z,10.69
2019-02-28T12:25:07.501Z,10.79
2019-02-28T12:26:02.774Z,10.54
2019-02-28T12:27:04.261Z,10.2
2019-02-28T12:28:06.754Z,10.74
2019-02-28T12:29:02.847Z,10.25
2019-02-28T12:30:03.129Z,10.4
2019-02-28T12:31:02.907Z,9.86
2019-02-28T12:32:02.769Z,10.14
2019-02-28T12:33:03.399Z,8.3
2019-02-28T12:34:03.003Z,9.66
2019-02-28T12:35:02.880Z,9.39
2019-02-28T12:36:03.097Z,9.29
2019-02-28T12:37:03.651Z,9.21
2019-02-28T12:38:03.617Z,9.21
2019-02-28T12:39:03.629Z,9.78
2019-02-28T12:40:02.892Z,9.34
2019-02-28T12:41:02.706Z,9.34
2019-02-28T12:42:03.589Z,8.72
2019-02-28T12:43:08.506Z,8.72
2019-02-28T12:44:03.499Z,9.11
2019-02-28T12:45:03.033Z,9.11
2019-02-28T12:46:03.595Z,8.87
2019-02-28T12:47:07.409Z,9.3
2019-02-28T12:48:03.407Z,8.6
2019-02-28T12:49:02.788Z,8.93
2019-02-28T12:50:03.706Z,8.62
2019-02-28T12:51:06.082Z,9.06
2019-02-28T12:52:03.662Z,9.07
2019-02-28T12:53:03.211Z,8.88
2019-02-28T12:54:03.371Z,9.19
2019-02-28T12:55:04.903Z,9.82
2019-02-28T12:56:03.448Z,9.29
2019-02-28T12:57:03.302Z,8.05
2019-02-28T12:58:03.403Z,9.32
2019-02-28T12:59:03.196Z,8.66
2019-02-28T13:00:03.803Z,8.26
2019-02-28T13:01:03.372Z,9.13
2019-02-28T13:02:08.508Z,9.26
2019-02-28T13:03:03.307Z,9.24
2019-02-28T13:04:03.353Z,9.81
2019-02-28T13:05:03.115Z,8.18
2019-02-28T13:06:03.507Z,8.72
2019-02-28T13:07:03.432Z,9.49
2019-02-28T13:08:06.901Z,8.59
2019-02-28T13:09:03.255Z,8
2019-02-28T13:10:04.140Z,8.61
2019-02-28T13:11:04.783Z,9.18